^^
Station Historical Data
Daily Summary for March 7, 2018 Units:  Metric    English   Both
« Previous Day
Next Day »
Daily Weekly Monthly Yearly Custom
  High: Low: Average:
Temperature: -17.8 °C 13.9 °C 18.8 °C
Dew Point: -17.8 °C -3.3 °C 6.3 °C
Humidity: Humidity% 18% 51%
Wind Speed: 0km/h 0km/h 0km/h
Wind Gust: 0km/h - -
Wind- - North
Pressure: 0 hPa 1011.1 hPa -
Precipitation: 2.54 mm    
Historical Graphs
 
 
Tabular Data for March 7, 2018
Time Temperature Dew Point Pressure Wind Wind Speed Wind Gust Humidity Rainfall Rate (Hourly) solar Conditions
-17.8 °C -17.8 °C 0 hPa Calm     Humidity% 0 mm SolarRadiationWatts/m^2 W/m2 Conditions
00:03 18.3 °C 15.9 °C 1014.4 hPa Calm     86% 0 mm 0.0 W/m2 BKN
00:08 18.3 °C 15.9 °C 1014.4 hPa Calm     86% 0 mm 0.0 W/m2 BKN
00:13 18.3 °C 15.9 °C 1014.4 hPa Calm     86% 0 mm 0.0 W/m2 BKN
00:18 18.3 °C 15.9 °C 1014.4 hPa Calm     86% 0 mm 0.0 W/m2 BKN
00:23 18.3 °C 15.9 °C 1014.4 hPa Calm     86% 0 mm 0.0 W/m2 BKN
00:28 18.3 °C 15.9 °C 1014.4 hPa Calm     86% 0 mm 0.0 W/m2 BKN
00:33 18.3 °C 15.9 °C 1014.4 hPa Calm     86% 0 mm 0.0 W/m2 BKN
00:38 18.3 °C 15.9 °C 1014.4 hPa Calm     86% 0 mm 0.0 W/m2 BKN
00:43 18.3 °C 15.9 °C 1014.4 hPa Calm     86% 0 mm 0.0 W/m2 BKN
00:48 18.3 °C 15.9 °C 1014.4 hPa Calm     86% 0 mm 0.0 W/m2 BKN
00:53 18.3 °C 15.9 °C 1014.4 hPa Calm     86% 0 mm 0.0 W/m2 BKN
00:58 18.3 °C 15.9 °C 1014.4 hPa Calm     86% 0 mm 0.0 W/m2 BKN
01:03 18.3 °C 17.2 °C 1013.8 hPa Calm     93% 0.76 mm 0.0 W/m2 -RA
01:08 18.3 °C 17.2 °C 1013.8 hPa Calm     93% 0.76 mm 0.0 W/m2 -RA
01:13 18.3 °C 17.2 °C 1013.8 hPa Calm     93% 0.76 mm 0.0 W/m2 -RA
01:18 18.3 °C 17.2 °C 1013.8 hPa Calm     93% 0.76 mm 0.0 W/m2 -RA
01:23 18.3 °C 17.2 °C 1013.8 hPa Calm     93% 0.76 mm 0.0 W/m2 -RA
01:28 18.3 °C 17.2 °C 1013.8 hPa Calm     93% 0.76 mm 0.0 W/m2 -RA
01:33 18.3 °C 17.2 °C 1013.8 hPa Calm     93% 0.76 mm 0.0 W/m2 -RA
01:38 18.3 °C 17.2 °C 1013.8 hPa Calm     93% 0.76 mm 0.0 W/m2 -RA
01:43 18.3 °C 17.2 °C 1013.8 hPa Calm     93% 0.76 mm 0.0 W/m2 -RA
01:48 18.3 °C 17.2 °C 1013.8 hPa Calm     93% 0.76 mm 0.0 W/m2 -RA
01:53 18.3 °C 17.2 °C 1013.8 hPa Calm     93% 0.76 mm 0.0 W/m2 -RA
01:58 18.3 °C 17.2 °C 1013.8 hPa Calm     93% 0.76 mm 0.0 W/m2 -RA
02:03 18.3 °C 17.2 °C 1012.4 hPa Calm     93% 0.76 mm 0.0 W/m2 RA
02:08 18.3 °C 17.2 °C 1012.4 hPa Calm     93% 0.76 mm 0.0 W/m2 RA
02:13 18.3 °C 17.2 °C 1012.4 hPa Calm     93% 0.76 mm 0.0 W/m2 BKN
02:18 18.3 °C 17.2 °C 1012.4 hPa Calm     93% 0.76 mm 0.0 W/m2 BKN
02:23 18.3 °C 17.2 °C 1012.4 hPa Calm     93% 0.76 mm 0.0 W/m2 BKN
02:28 18.3 °C 17.2 °C 1012.4 hPa Calm     93% 0.76 mm 0.0 W/m2 BKN
02:33 18.3 °C 17.2 °C 1012.4 hPa Calm     93% 0.76 mm 0.0 W/m2 BKN
02:38 18.3 °C 17.2 °C 1012.4 hPa Calm     93% 0.76 mm 0.0 W/m2 BKN
02:43 18.3 °C 17.2 °C 1012.4 hPa Calm     93% 0.76 mm 0.0 W/m2 BKN
02:48 18.3 °C 17.2 °C 1012.4 hPa Calm     93% 0.76 mm 0.0 W/m2 BKN
02:53 18.3 °C 17.2 °C 1012.4 hPa Calm     93% 0.76 mm 0.0 W/m2 BKN
02:58 18.3 °C 17.2 °C 1012.4 hPa Calm     93% 0.76 mm 0.0 W/m2 BKN
03:03 18.9 °C 16.7 °C 1011.4 hPa Calm     87% 0 mm 0.0 W/m2 SCT
03:08 18.9 °C 16.7 °C 1011.4 hPa Calm     87% 0 mm 0.0 W/m2 SCT
03:13 18.9 °C 16.7 °C 1011.4 hPa Calm     87% 0 mm 0.0 W/m2 SCT
03:18 18.9 °C 16.7 °C 1011.4 hPa Calm     87% 0 mm 0.0 W/m2 SCT
03:23 18.9 °C 16.7 °C 1011.4 hPa Calm     87% 0 mm 0.0 W/m2 SCT
03:28 18.9 °C 16.7 °C 1011.4 hPa Calm     87% 0 mm 0.0 W/m2 SCT
03:33 18.9 °C 16.7 °C 1011.4 hPa Calm     87% 0 mm 0.0 W/m2 SCT
03:38 18.9 °C 16.7 °C 1011.4 hPa Calm     87% 0 mm 0.0 W/m2 SCT
03:43 18.9 °C 16.7 °C 1011.4 hPa Calm     87% 0 mm 0.0 W/m2 SCT
03:48 18.9 °C 16.7 °C 1011.4 hPa Calm     87% 0 mm 0.0 W/m2 SCT
03:53 18.9 °C 16.7 °C 1011.4 hPa Calm     87% 0 mm 0.0 W/m2 SCT
03:58 18.9 °C 16.7 °C 1011.4 hPa Calm     87% 0 mm 0.0 W/m2 SCT
04:03 19.4 °C 16.6 °C 1011.1 hPa Calm     84% 0.25 mm 0.0 W/m2 RA
04:08 19.4 °C 16.6 °C 1011.1 hPa Calm     84% 0.25 mm 0.0 W/m2 RA
04:13 19.4 °C 16.6 °C 1011.1 hPa Calm     84% 0.25 mm 0.0 W/m2 OVC
04:18 19.4 °C 16.6 °C 1011.1 hPa Calm     84% 0.25 mm 0.0 W/m2 OVC
04:23 19.4 °C 16.6 °C 1011.1 hPa Calm     84% 0.25 mm 0.0 W/m2 OVC
04:28 19.4 °C 16.6 °C 1011.1 hPa Calm     84% 0.25 mm 0.0 W/m2 OVC
04:33 19.4 °C 16.6 °C 1011.1 hPa Calm     84% 0.25 mm 0.0 W/m2 OVC
04:38 19.4 °C 16.6 °C 1011.1 hPa Calm     84% 0.25 mm 0.0 W/m2 OVC
04:43 19.4 °C 16.6 °C 1011.1 hPa Calm     84% 0.25 mm 0.0 W/m2 OVC
04:48 19.4 °C 16.6 °C 1011.1 hPa Calm     84% 0.25 mm 0.0 W/m2 OVC
04:53 19.4 °C 16.6 °C 1011.1 hPa Calm     84% 0.25 mm 0.0 W/m2 OVC
04:58 19.4 °C 16.6 °C 1011.1 hPa Calm     84% 0.25 mm 0.0 W/m2 OVC
05:03 19.4 °C 17.2 °C 1011.7 hPa Calm     87% 0.51 mm 0.0 W/m2 -RA
05:08 19.4 °C 17.2 °C 1011.7 hPa Calm     87% 0.51 mm 0.0 W/m2 -RA
05:13 19.4 °C 17.2 °C 1011.7 hPa Calm     87% 0.51 mm 0.0 W/m2 -RA
05:18 19.4 °C 17.2 °C 1011.7 hPa Calm     87% 0.51 mm 0.0 W/m2 -RA
05:23 19.4 °C 17.2 °C 1011.7 hPa Calm     87% 0.51 mm 0.0 W/m2 -RA
05:28 19.4 °C 17.2 °C 1011.7 hPa Calm     87% 0.51 mm 0.0 W/m2 -RA
05:33 18.9 °C 17.7 °C 1012.1 hPa Calm     93% 0.51 mm 0.0 W/m2 -RA
05:38 18.9 °C 17.7 °C 1012.1 hPa Calm     93% 0.51 mm 0.0 W/m2 -RA
05:43 18.9 °C 17.7 °C 1012.1 hPa Calm     93% 0.51 mm 0.0 W/m2 -RA
05:48 18.9 °C 17.7 °C 1012.1 hPa Calm     93% 0.51 mm 0.0 W/m2 -RA
05:53 18.9 °C 17.7 °C 1012.1 hPa Calm     93% 0.51 mm 0.0 W/m2 -RA
05:58 18.9 °C 17.7 °C 1012.1 hPa Calm     93% 0.51 mm 0.0 W/m2 -RA
06:03 18.9 °C 18.2 °C 1012.4 hPa Calm     96% 0.25 mm 0.0 W/m2 RA
06:08 18.9 °C 18.2 °C 1012.4 hPa Calm     96% 0.25 mm 0.0 W/m2 RA
06:13 18.9 °C 18.2 °C 1012.4 hPa Calm     96% 0.25 mm 0.0 W/m2 OVC
06:18 18.9 °C 18.2 °C 1012.4 hPa Calm     96% 0.25 mm 0.0 W/m2 OVC
06:23 18.9 °C 18.2 °C 1012.4 hPa Calm     96% 0.25 mm 0.0 W/m2 OVC
06:28 18.9 °C 18.2 °C 1012.4 hPa Calm     96% 0.25 mm 0.0 W/m2 OVC
06:33 18.9 °C 18.2 °C 1012.4 hPa Calm     96% 0.25 mm 0.0 W/m2 OVC
06:38 18.9 °C 18.2 °C 1012.4 hPa Calm     96% 0.25 mm 0.0 W/m2 OVC
06:43 18.9 °C 18.2 °C 1012.4 hPa Calm     96% 0.25 mm 0.0 W/m2 OVC
06:48 19.4 °C 18.2 °C 1013.1 hPa Calm     93% 0.25 mm 0.0 W/m2 OVC
06:53 19.4 °C 18.2 °C 1013.1 hPa Calm     93% 0.25 mm 0.0 W/m2 OVC
06:58 19.4 °C 18.2 °C 1013.1 hPa Calm     93% 0.25 mm 0.0 W/m2 OVC
07:03 18.9 °C 16.7 °C 1013.1 hPa Calm     87% 0 mm 0.0 W/m2 OVC
07:08 18.9 °C 16.7 °C 1013.1 hPa Calm     87% 0 mm 0.0 W/m2 OVC
07:13 18.9 °C 16.7 °C 1013.1 hPa Calm     87% 0 mm 0.0 W/m2 OVC
07:18 18.9 °C 15.6 °C 1013.4 hPa Calm     81% 0 mm 0.0 W/m2 OVC
07:23 18.9 °C 15.6 °C 1013.4 hPa Calm     81% 0 mm 0.0 W/m2 OVC
07:28 18.9 °C 15.6 °C 1013.4 hPa Calm     81% 0 mm 0.0 W/m2 OVC
07:33 18.9 °C 15.6 °C 1013.4 hPa Calm     81% 0 mm 0.0 W/m2 BKN
07:38 18.9 °C 15.6 °C 1013.4 hPa Calm     81% 0 mm 0.0 W/m2 BKN
07:43 18.9 °C 15.6 °C 1013.4 hPa Calm     81% 0 mm 0.0 W/m2 BKN
07:48 18.3 °C 14.2 °C 1013.8 hPa Calm     77% 0 mm 0.0 W/m2 BKN
07:53 18.3 °C 14.2 °C 1013.8 hPa Calm     77% 0 mm 0.0 W/m2 BKN
07:58 18.3 °C 14.2 °C 1013.8 hPa Calm     77% 0 mm 0.0 W/m2 BKN
08:03 17.2 °C 9.8 °C 1014.4 hPa Calm     62% 0 mm 0.0 W/m2 FEW
08:08 17.2 °C 9.8 °C 1014.4 hPa Calm     62% 0 mm 0.0 W/m2 FEW
08:13 17.2 °C 9.8 °C 1014.4 hPa Calm     62% 0 mm 0.0 W/m2 FEW
08:18 17.2 °C 9.8 °C 1014.4 hPa Calm     62% 0 mm 0.0 W/m2 FEW
08:23 17.2 °C 9.8 °C 1014.4 hPa Calm     62% 0 mm 0.0 W/m2 FEW
08:24 17.2 °C 9.8 °C 1014.4 hPa Calm     62% 0 mm 0.0 W/m2 FEW
08:29 17.2 °C 9.8 °C 1014.4 hPa Calm     62% 0 mm 0.0 W/m2 FEW
08:34 17.2 °C 9.8 °C 1014.4 hPa Calm     62% 0 mm 0.0 W/m2 FEW
08:39 17.2 °C 9.8 °C 1014.4 hPa Calm     62% 0 mm 0.0 W/m2 FEW
08:44 17.2 °C 9.8 °C 1014.4 hPa Calm     62% 0 mm 0.0 W/m2 FEW
08:49 17.2 °C 9.8 °C 1014.4 hPa Calm     62% 0 mm 0.0 W/m2 FEW
08:54 17.2 °C 9.8 °C 1014.4 hPa Calm     62% 0 mm 0.0 W/m2 FEW
08:59 17.2 °C 9.8 °C 1014.4 hPa Calm     62% 0 mm 0.0 W/m2 FEW
09:04 17.8 °C 4.7 °C 1015.5 hPa Calm     42% 0 mm 0.0 W/m2 CLR
09:09 17.8 °C 4.7 °C 1015.5 hPa Calm     42% 0 mm 0.0 W/m2 CLR
09:14 17.8 °C 4.7 °C 1015.5 hPa Calm     42% 0 mm 0.0 W/m2 CLR
09:19 17.8 °C 4.7 °C 1015.5 hPa Calm     42% 0 mm 0.0 W/m2 CLR
09:24 17.8 °C 4.7 °C 1015.5 hPa Calm     42% 0 mm 0.0 W/m2 CLR
09:29 17.8 °C 4.7 °C 1015.5 hPa Calm     42% 0 mm 0.0 W/m2 CLR
09:34 17.8 °C 4.7 °C 1015.5 hPa Calm     42% 0 mm 0.0 W/m2 CLR
09:39 17.8 °C 4.7 °C 1015.5 hPa Calm     42% 0 mm 0.0 W/m2 CLR
09:44 17.8 °C 4.7 °C 1015.5 hPa Calm     42% 0 mm 0.0 W/m2 CLR
09:49 17.8 °C 4.7 °C 1015.5 hPa Calm     42% 0 mm 0.0 W/m2 CLR
09:54 17.8 °C 4.7 °C 1015.5 hPa Calm     42% 0 mm 0.0 W/m2 CLR
09:59 17.8 °C 4.7 °C 1015.5 hPa Calm     42% 0 mm 0.0 W/m2 CLR
10:04 20 °C 3.2 °C 1015.1 hPa Calm     33% 0 mm 0.0 W/m2 CLR
10:09 20 °C 3.2 °C 1015.1 hPa Calm     33% 0 mm 0.0 W/m2 CLR
10:14 20 °C 3.2 °C 1015.1 hPa Calm     33% 0 mm 0.0 W/m2 CLR
10:19 20 °C 3.2 °C 1015.1 hPa Calm     33% 0 mm 0.0 W/m2 CLR
10:24 20 °C 3.2 °C 1015.1 hPa Calm     33% 0 mm 0.0 W/m2 CLR
10:29 20 °C 3.2 °C 1015.1 hPa Calm     33% 0 mm 0.0 W/m2 CLR
10:34 20 °C 3.2 °C 1015.1 hPa Calm     33% 0 mm 0.0 W/m2 CLR
10:39 20 °C 3.2 °C 1015.1 hPa Calm     33% 0 mm 0.0 W/m2 CLR
10:44 20 °C 3.2 °C 1015.1 hPa Calm     33% 0 mm 0.0 W/m2 CLR
10:49 20 °C 3.2 °C 1015.1 hPa Calm     33% 0 mm 0.0 W/m2 CLR
10:54 20 °C 3.2 °C 1015.1 hPa Calm     33% 0 mm 0.0 W/m2 CLR
10:59 20 °C 3.2 °C 1015.1 hPa Calm     33% 0 mm 0.0 W/m2 CLR
11:04 20 °C 0.9 °C 1015.8 hPa Calm     28% 0 mm 0.0 W/m2 CLR
11:09 20 °C 0.9 °C 1015.8 hPa Calm     28% 0 mm 0.0 W/m2 CLR
11:14 20 °C 0.9 °C 1015.8 hPa Calm     28% 0 mm 0.0 W/m2 CLR
11:19 20 °C 0.9 °C 1015.8 hPa Calm     28% 0 mm 0.0 W/m2 CLR
11:24 20 °C 0.9 °C 1015.8 hPa Calm     28% 0 mm 0.0 W/m2 CLR
11:29 20 °C 0.9 °C 1015.8 hPa Calm     28% 0 mm 0.0 W/m2 CLR
11:34 20 °C 0.9 °C 1015.8 hPa Calm     28% 0 mm 0.0 W/m2 CLR
11:39 20 °C 0.9 °C 1015.8 hPa Calm     28% 0 mm 0.0 W/m2 CLR
11:44 20 °C 0.9 °C 1015.8 hPa Calm     28% 0 mm 0.0 W/m2 CLR
11:49 20 °C 0.9 °C 1015.8 hPa Calm     28% 0 mm 0.0 W/m2 CLR
11:54 20 °C 0.9 °C 1015.8 hPa Calm     28% 0 mm 0.0 W/m2 CLR
11:59 20 °C 0.9 °C 1015.8 hPa Calm     28% 0 mm 0.0 W/m2 CLR
12:04 21.1 °C 0.3 °C 1015.5 hPa Calm     25% 0 mm 0.0 W/m2 CLR
12:09 21.1 °C 0.3 °C 1015.5 hPa Calm     25% 0 mm 0.0 W/m2 CLR
12:14 21.1 °C 0.3 °C 1015.5 hPa Calm     25% 0 mm 0.0 W/m2 CLR
12:19 21.1 °C 0.3 °C 1015.5 hPa Calm     25% 0 mm 0.0 W/m2 CLR
12:24 21.1 °C 0.3 °C 1015.5 hPa Calm     25% 0 mm 0.0 W/m2 CLR
12:29 21.1 °C 0.3 °C 1015.5 hPa Calm     25% 0 mm 0.0 W/m2 CLR
12:34 21.1 °C 0.3 °C 1015.5 hPa Calm     25% 0 mm 0.0 W/m2 CLR
12:39 21.1 °C 0.3 °C 1015.5 hPa Calm     25% 0 mm 0.0 W/m2 CLR
12:44 21.1 °C 0.3 °C 1015.5 hPa Calm     25% 0 mm 0.0 W/m2 CLR
12:49 21.1 °C 0.3 °C 1015.5 hPa Calm     25% 0 mm 0.0 W/m2 CLR
12:54 21.1 °C 0.3 °C 1015.5 hPa Calm     25% 0 mm 0.0 W/m2 CLR
12:59 21.1 °C 0.3 °C 1015.5 hPa Calm     25% 0 mm 0.0 W/m2 CLR
13:04 22.2 °C 0.1 °C 1014.8 hPa Calm     23% 0 mm 0.0 W/m2 CLR
13:09 22.2 °C 0.1 °C 1014.8 hPa Calm     23% 0 mm 0.0 W/m2 CLR
13:14 22.2 °C 0.1 °C 1014.8 hPa Calm     23% 0 mm 0.0 W/m2 CLR
13:19 22.2 °C 0.1 °C 1014.8 hPa Calm     23% 0 mm 0.0 W/m2 CLR
13:24 22.2 °C 0.1 °C 1014.8 hPa Calm     23% 0 mm 0.0 W/m2 CLR
13:29 22.2 °C 0.1 °C 1014.8 hPa Calm     23% 0 mm 0.0 W/m2 CLR
13:34 22.2 °C 0.1 °C 1014.8 hPa Calm     23% 0 mm 0.0 W/m2 CLR
13:39 22.2 °C 0.1 °C 1014.8 hPa Calm     23% 0 mm 0.0 W/m2 CLR
13:44 22.2 °C 0.1 °C 1014.8 hPa Calm     23% 0 mm 0.0 W/m2 CLR
13:49 22.2 °C 0.1 °C 1014.8 hPa Calm     23% 0 mm 0.0 W/m2 CLR
13:54 22.2 °C 0.1 °C 1014.8 hPa Calm     23% 0 mm 0.0 W/m2 CLR
13:59 22.2 °C 0.1 °C 1014.8 hPa Calm     23% 0 mm 0.0 W/m2 CLR
14:04 22.8 °C 0.6 °C 1014.4 hPa Calm     23% 0 mm 0.0 W/m2 CLR
14:09 22.8 °C 0.6 °C 1014.4 hPa Calm     23% 0 mm 0.0 W/m2 CLR
14:14 22.8 °C 0.6 °C 1014.4 hPa Calm     23% 0 mm 0.0 W/m2 CLR
14:19 22.8 °C 0.6 °C 1014.4 hPa Calm     23% 0 mm 0.0 W/m2 CLR
14:24 22.8 °C 0.6 °C 1014.4 hPa Calm     23% 0 mm 0.0 W/m2 CLR
14:29 22.8 °C 0.6 °C 1014.4 hPa Calm     23% 0 mm 0.0 W/m2 CLR
14:34 22.8 °C 0.6 °C 1014.4 hPa Calm     23% 0 mm 0.0 W/m2 CLR
14:39 22.8 °C 0.6 °C 1014.4 hPa Calm     23% 0 mm 0.0 W/m2 CLR
14:44 22.8 °C 0.6 °C 1014.4 hPa Calm     23% 0 mm 0.0 W/m2 CLR
14:49 22.8 °C 0.6 °C 1014.4 hPa Calm     23% 0 mm 0.0 W/m2 CLR
14:54 22.8 °C 0.6 °C 1014.4 hPa Calm     23% 0 mm 0.0 W/m2 CLR
14:59 22.8 °C 0.6 °C 1014.4 hPa Calm     23% 0 mm 0.0 W/m2 CLR
15:04 22.8 °C -0.1 °C 1013.8 hPa Calm     22% 0 mm 0.0 W/m2 CLR
15:09 22.8 °C -0.1 °C 1013.8 hPa Calm     22% 0 mm 0.0 W/m2 CLR
15:14 22.8 °C -0.1 °C 1013.8 hPa Calm     22% 0 mm 0.0 W/m2 CLR
15:19 22.8 °C -0.1 °C 1013.8 hPa Calm     22% 0 mm 0.0 W/m2 CLR
15:24 22.8 °C -0.1 °C 1013.8 hPa Calm     22% 0 mm 0.0 W/m2 CLR
15:29 22.8 °C -0.1 °C 1013.8 hPa Calm     22% 0 mm 0.0 W/m2 CLR
15:34 22.8 °C -0.1 °C 1013.8 hPa Calm     22% 0 mm 0.0 W/m2 CLR
15:40 22.8 °C -0.1 °C 1013.8 hPa Calm     22% 0 mm 0.0 W/m2 CLR
15:45 22.8 °C -0.1 °C 1013.8 hPa Calm     22% 0 mm 0.0 W/m2 CLR
15:50 22.8 °C -0.1 °C 1013.8 hPa Calm     22% 0 mm 0.0 W/m2 CLR
15:55 22.8 °C -0.1 °C 1013.8 hPa Calm     22% 0 mm 0.0 W/m2 CLR
16:00 22.8 °C -0.1 °C 1013.8 hPa Calm     22% 0 mm 0.0 W/m2 CLR
16:05 22.8 °C -2.8 °C 1013.4 hPa Calm     18% 0 mm 0.0 W/m2 CLR
16:10 22.8 °C -2.8 °C 1013.4 hPa Calm     18% 0 mm 0.0 W/m2 CLR
16:15 22.8 °C -2.8 °C 1013.4 hPa Calm     18% 0 mm 0.0 W/m2 CLR
16:20 22.8 °C -2.8 °C 1013.4 hPa Calm     18% 0 mm 0.0 W/m2 CLR
16:25 22.8 °C -2.8 °C 1013.4 hPa Calm     18% 0 mm 0.0 W/m2 CLR
16:30 22.8 °C -2.8 °C 1013.4 hPa Calm     18% 0 mm 0.0 W/m2 CLR
16:35 22.8 °C -2.8 °C 1013.4 hPa Calm     18% 0 mm 0.0 W/m2 CLR
16:40 22.8 °C -2.8 °C 1013.4 hPa Calm     18% 0 mm 0.0 W/m2 CLR
16:45 22.8 °C -2.8 °C 1013.4 hPa Calm     18% 0 mm 0.0 W/m2 CLR
16:50 22.8 °C -2.8 °C 1013.4 hPa Calm     18% 0 mm 0.0 W/m2 CLR
16:55 22.8 °C -2.8 °C 1013.4 hPa Calm     18% 0 mm 0.0 W/m2 CLR
17:00 22.8 °C -2.8 °C 1013.4 hPa Calm     18% 0 mm 0.0 W/m2 CLR
17:05 21.7 °C -2.3 °C 1013.1 hPa Calm     20% 0 mm 0.0 W/m2 CLR
17:10 21.7 °C -2.3 °C 1013.1 hPa Calm     20% 0 mm 0.0 W/m2 CLR
17:15 21.7 °C -2.3 °C 1013.1 hPa Calm     20% 0 mm 0.0 W/m2 CLR
17:20 21.7 °C -2.3 °C 1013.1 hPa Calm     20% 0 mm 0.0 W/m2 CLR
17:25 21.7 °C -2.3 °C 1013.1 hPa Calm     20% 0 mm 0.0 W/m2 CLR
17:30 21.7 °C -2.3 °C 1013.1 hPa Calm     20% 0 mm 0.0 W/m2 CLR
17:35 21.7 °C -2.3 °C 1013.1 hPa Calm     20% 0 mm 0.0 W/m2 CLR
17:40 21.7 °C -2.3 °C 1013.1 hPa Calm     20% 0 mm 0.0 W/m2 CLR
17:45 21.7 °C -2.3 °C 1013.1 hPa Calm     20% 0 mm 0.0 W/m2 CLR
17:50 21.7 °C -2.3 °C 1013.1 hPa Calm     20% 0 mm 0.0 W/m2 CLR
17:55 21.7 °C -2.3 °C 1013.1 hPa Calm     20% 0 mm 0.0 W/m2 CLR
18:00 21.7 °C -2.3 °C 1013.1 hPa Calm     20% 0 mm 0.0 W/m2 CLR
18:05 18.9 °C -3.3 °C 1014.1 hPa Calm     22% 0 mm 0.0 W/m2 CLR
18:10 18.9 °C -3.3 °C 1014.1 hPa Calm     22% 0 mm 0.0 W/m2 CLR
18:15 18.9 °C -3.3 °C 1014.1 hPa Calm     22% 0 mm 0.0 W/m2 CLR
18:20 18.9 °C -3.3 °C 1014.1 hPa Calm     22% 0 mm 0.0 W/m2 CLR
18:25 18.9 °C -3.3 °C 1014.1 hPa Calm     22% 0 mm 0.0 W/m2 CLR
18:30 18.9 °C -3.3 °C 1014.1 hPa Calm     22% 0 mm 0.0 W/m2 CLR
18:35 18.9 °C -3.3 °C 1014.1 hPa Calm     22% 0 mm 0.0 W/m2 CLR
18:40 18.9 °C -3.3 °C 1014.1 hPa Calm     22% 0 mm 0.0 W/m2 CLR
18:45 18.9 °C -3.3 °C 1014.1 hPa Calm     22% 0 mm 0.0 W/m2 CLR
18:50 18.9 °C -3.3 °C 1014.1 hPa Calm     22% 0 mm 0.0 W/m2 CLR
18:55 18.9 °C -3.3 °C 1014.1 hPa Calm     22% 0 mm 0.0 W/m2 CLR
19:00 18.9 °C -3.3 °C 1014.1 hPa Calm     22% 0 mm 0.0 W/m2 CLR
19:05 17.8 °C -3.1 °C 1014.8 hPa Calm     24% 0 mm 0.0 W/m2 CLR
19:10 17.8 °C -3.1 °C 1014.8 hPa Calm     24% 0 mm 0.0 W/m2 CLR
19:15 17.8 °C -3.1 °C 1014.8 hPa Calm     24% 0 mm 0.0 W/m2 CLR
19:20 17.8 °C -3.1 °C 1014.8 hPa Calm     24% 0 mm 0.0 W/m2 CLR
19:25 17.8 °C -3.1 °C 1014.8 hPa Calm     24% 0 mm 0.0 W/m2 CLR
19:30 17.8 °C -3.1 °C 1014.8 hPa Calm     24% 0 mm 0.0 W/m2 CLR
19:35 17.8 °C -3.1 °C 1014.8 hPa Calm     24% 0 mm 0.0 W/m2 CLR
19:40 17.8 °C -3.1 °C 1014.8 hPa Calm     24% 0 mm 0.0 W/m2 CLR
19:45 17.8 °C -3.1 °C 1014.8 hPa Calm     24% 0 mm 0.0 W/m2 CLR
19:50 17.8 °C -3.1 °C 1014.8 hPa Calm     24% 0 mm 0.0 W/m2 CLR
19:51 17.8 °C -3.1 °C 1014.8 hPa Calm     24% 0 mm 0.0 W/m2 CLR
19:56 17.8 °C -3.1 °C 1014.8 hPa Calm     24% 0 mm 0.0 W/m2 CLR
20:01 16.1 °C -0.2 °C 1015.8 hPa Calm     33% 0 mm 0.0 W/m2 CLR
20:06 16.1 °C -0.2 °C 1015.8 hPa Calm     33% 0 mm 0.0 W/m2 CLR
20:11 16.1 °C -0.2 °C 1015.8 hPa Calm     33% 0 mm 0.0 W/m2 CLR
20:16 16.1 °C -0.2 °C 1015.8 hPa Calm     33% 0 mm 0.0 W/m2 CLR
20:21 16.1 °C -0.2 °C 1015.8 hPa Calm     33% 0 mm 0.0 W/m2 CLR
20:26 16.1 °C -0.2 °C 1015.8 hPa Calm     33% 0 mm 0.0 W/m2 CLR
20:31 16.1 °C -0.2 °C 1015.8 hPa Calm     33% 0 mm 0.0 W/m2 CLR
20:36 16.1 °C -0.2 °C 1015.8 hPa Calm     33% 0 mm 0.0 W/m2 CLR
20:41 16.1 °C -0.2 °C 1015.8 hPa Calm     33% 0 mm 0.0 W/m2 CLR
20:46 16.1 °C -0.2 °C 1015.8 hPa Calm     33% 0 mm 0.0 W/m2 CLR
20:51 16.1 °C -0.2 °C 1015.8 hPa Calm     33% 0 mm 0.0 W/m2 CLR
20:56 16.1 °C -0.2 °C 1015.8 hPa Calm     33% 0 mm 0.0 W/m2 CLR
21:01 15 °C 1.8 °C 1016.5 hPa Calm     41% 0 mm 0.0 W/m2 CLR
21:06 15 °C 1.8 °C 1016.5 hPa Calm     41% 0 mm 0.0 W/m2 CLR
21:11 15 °C 1.8 °C 1016.5 hPa Calm     41% 0 mm 0.0 W/m2 CLR
21:16 15 °C 1.8 °C 1016.5 hPa Calm     41% 0 mm 0.0 W/m2 CLR
21:21 15 °C 1.8 °C 1016.5 hPa Calm     41% 0 mm 0.0 W/m2 CLR
21:26 15 °C 1.8 °C 1016.5 hPa Calm     41% 0 mm 0.0 W/m2 CLR
21:31 15 °C 1.8 °C 1016.5 hPa Calm     41% 0 mm 0.0 W/m2 CLR
21:36 15 °C 1.8 °C 1016.5 hPa Calm     41% 0 mm 0.0 W/m2 CLR
21:41 15 °C 1.8 °C 1016.5 hPa Calm     41% 0 mm 0.0 W/m2 CLR
21:46 15 °C 1.8 °C 1016.5 hPa Calm     41% 0 mm 0.0 W/m2 CLR
21:51 15 °C 1.8 °C 1016.5 hPa Calm     41% 0 mm 0.0 W/m2 CLR
21:56 15 °C 1.8 °C 1016.5 hPa Calm     41% 0 mm 0.0 W/m2 CLR
22:01 14.4 °C 3.2 °C 1016.8 hPa Calm     47% 0 mm 0.0 W/m2 CLR
22:06 14.4 °C 3.2 °C 1016.8 hPa Calm     47% 0 mm 0.0 W/m2 CLR
22:11 14.4 °C 3.2 °C 1016.8 hPa Calm     47% 0 mm 0.0 W/m2 CLR
22:16 14.4 °C 3.2 °C 1016.8 hPa Calm     47% 0 mm 0.0 W/m2 CLR
22:21 14.4 °C 3.2 °C 1016.8 hPa Calm     47% 0 mm 0.0 W/m2 CLR
22:26 14.4 °C 3.2 °C 1016.8 hPa Calm     47% 0 mm 0.0 W/m2 CLR
22:31 14.4 °C 3.2 °C 1016.8 hPa Calm     47% 0 mm 0.0 W/m2 CLR
22:36 14.4 °C 3.2 °C 1016.8 hPa Calm     47% 0 mm 0.0 W/m2 CLR
22:41 14.4 °C 3.2 °C 1016.8 hPa Calm     47% 0 mm 0.0 W/m2 CLR
22:46 14.4 °C 3.2 °C 1016.8 hPa Calm     47% 0 mm 0.0 W/m2 CLR
22:51 14.4 °C 3.2 °C 1016.8 hPa Calm     47% 0 mm 0.0 W/m2 CLR
22:56 14.4 °C 3.2 °C 1016.8 hPa Calm     47% 0 mm 0.0 W/m2 CLR
23:01 13.9 °C 4.7 °C 1017.2 hPa Calm     54% 0 mm 0.0 W/m2 CLR
23:06 13.9 °C 4.7 °C 1017.2 hPa Calm     54% 0 mm 0.0 W/m2 CLR
23:11 13.9 °C 4.7 °C 1017.2 hPa Calm     54% 0 mm 0.0 W/m2 CLR
23:16 13.9 °C 4.7 °C 1017.2 hPa Calm     54% 0 mm 0.0 W/m2 CLR
23:21 13.9 °C 4.7 °C 1017.2 hPa Calm     54% 0 mm 0.0 W/m2 CLR
23:26 13.9 °C 4.7 °C 1017.2 hPa Calm     54% 0 mm 0.0 W/m2 CLR
23:31 13.9 °C 4.7 °C 1017.2 hPa Calm     54% 0 mm 0.0 W/m2 CLR
23:36 13.9 °C 4.7 °C 1017.2 hPa Calm     54% 0 mm 0.0 W/m2 CLR
23:41 13.9 °C 4.7 °C 1017.2 hPa Calm     54% 0 mm 0.0 W/m2 CLR
23:46 13.9 °C 4.7 °C 1017.2 hPa Calm     54% 0 mm 0.0 W/m2 CLR
23:51 13.9 °C 4.7 °C 1017.2 hPa Calm     54% 0 mm 0.0 W/m2 CLR
23:56 13.9 °C 4.7 °C 1017.2 hPa Calm     54% 0 mm 0.0 W/m2 CLR
Lake Mary, FL, USA
Compliments of Weather Underground - 1.75 mb